createdAt,value
2022-12-28T00:02:31.195Z,7.70
2022-12-28T00:22:30.869Z,5.40
2022-12-28T00:42:30.565Z,6.60
2022-12-28T01:02:30.349Z,2.60
2022-12-28T01:22:30.036Z,2.70
2022-12-28T01:42:29.783Z,2.10
2022-12-28T02:02:29.638Z,2.30
2022-12-28T02:22:29.286Z,8.00
2022-12-28T02:42:29.021Z,5.00
2022-12-28T03:02:28.935Z,6.40
2022-12-28T03:22:28.464Z,7.50
2022-12-28T03:42:35.245Z,6.20
2022-12-28T04:02:27.984Z,4.40
2022-12-28T04:22:27.663Z,9.70
2022-12-28T04:42:27.415Z,8.30
2022-12-28T05:02:27.262Z,9.30
2022-12-28T05:22:26.922Z,12.60
2022-12-28T05:42:26.590Z,11.50
2022-12-28T06:02:26.413Z,10.50
2022-12-28T06:22:26.047Z,14.30
2022-12-28T06:42:25.761Z,12.90
2022-12-28T07:02:25.650Z,13.20
2022-12-28T07:22:25.209Z,10.40
2022-12-28T07:42:24.943Z,9.30
2022-12-28T08:02:24.789Z,9.80
2022-12-28T08:22:24.403Z,8.20
2022-12-28T08:42:24.186Z,6.10
2022-12-28T09:02:24.018Z,10.40
2022-12-28T09:22:23.597Z,10.30
2022-12-28T09:42:23.352Z,8.80
2022-12-28T10:02:23.136Z,10.00
2022-12-28T10:22:23.790Z,8.50
2022-12-28T10:42:22.515Z,7.70
2022-12-28T11:02:22.372Z,10.00
2022-12-28T11:22:21.969Z,9.60
2022-12-28T11:42:39.091Z,6.60
2022-12-28T12:02:21.510Z,5.70
2022-12-28T12:22:21.165Z,8.50
2022-12-28T12:42:20.873Z,5.50
2022-12-28T13:02:20.844Z,6.50
2022-12-28T13:22:20.336Z,6.10
2022-12-28T13:42:20.080Z,3.50
2022-12-28T14:02:19.949Z,4.80
2022-12-28T14:22:19.518Z,4.10
2022-12-28T14:42:19.249Z,12.80
2022-12-28T15:02:19.075Z,9.40
2022-12-28T15:22:18.754Z,9.10
2022-12-28T15:42:18.429Z,6.70
2022-12-28T16:02:18.346Z,5.20
2022-12-28T16:22:17.870Z,3.40
2022-12-28T16:42:17.621Z,7.40
2022-12-28T17:02:17.557Z,5.30
2022-12-28T17:22:17.052Z,10.40
2022-12-28T17:42:16.815Z,11.60
2022-12-28T18:02:16.756Z,10.60
2022-12-28T18:22:17.239Z,7.60
2022-12-28T18:42:16.001Z,6.00
2022-12-28T19:02:19.650Z,4.40
2022-12-28T19:22:15.467Z,5.10
2022-12-28T19:42:15.183Z,5.10
2022-12-28T20:02:14.965Z,4.40
2022-12-28T20:22:15.615Z,5.30
2022-12-28T20:42:14.338Z,4.40
2022-12-28T21:02:14.118Z,8.70
2022-12-28T21:22:13.800Z,4.90
2022-12-28T21:42:13.632Z,5.70
2022-12-28T22:02:13.535Z,8.60
2022-12-28T22:22:13.026Z,7.50
2022-12-28T22:42:12.727Z,12.70
2022-12-28T23:02:12.652Z,8.40
2022-12-28T23:22:12.232Z,17.80
2022-12-28T23:42:11.898Z,18.20
